Time;durP1;ratioP1;P1;durP2;ratioP2;P2;SDS_P1;SDS_P2;PMS_P1;PMS_P2;Temp;Humidity;BMP_temperature;BMP_pressure;BME280_temperature;BME280_humidity;BME280_pressure;Samples;Min_cycle;Max_cycle;Signal;HPM_P1;HPM_P2
2024/03/13 00:00:09;;;;;;;17.98;7.32;;;;;;;;;;6179488;23;20210;-90
2024/03/13 00:03:17;;;;;;;17.63;7.90;;;;;;;;;;6196126;23;20176;-89
2024/03/13 00:06:23;;;;;;;20.23;8.25;;;;;;;;;;6176961;23;20164;-88
2024/03/13 00:09:30;;;;;;;19.27;7.18;;;;;;;;;;6178495;23;20167;-86
2024/03/13 00:12:35;;;;;;;17.98;7.65;;;;;;;;;;6177062;23;20168;-90
2024/03/13 00:15:40;;;;;;;17.63;7.50;;;;;;;;;;6178015;23;20224;-87
2024/03/13 00:18:45;;;;;;;21.23;7.97;;;;;;;;;;6177391;23;20164;-89
2024/03/13 00:21:52;;;;;;;18.83;7.68;;;;;;;;;;6176249;23;20278;-89
2024/03/13 00:24:58;;;;;;;19.52;7.63;;;;;;;;;;6192834;23;20176;-89
2024/03/13 00:28:03;;;;;;;20.05;7.68;;;;;;;;;;6176108;23;20212;-89
2024/03/13 00:31:09;;;;;;;17.85;7.75;;;;;;;;;;6176782;23;20180;-90
2024/03/13 00:34:15;;;;;;;18.20;7.90;;;;;;;;;;6176615;23;20231;-89
2024/03/13 00:37:21;;;;;;;19.60;7.45;;;;;;;;;;6176805;23;20167;-89
2024/03/13 00:40:26;;;;;;;16.55;7.05;;;;;;;;;;6178509;23;20319;-87
2024/03/13 00:43:32;;;;;;;18.83;6.97;;;;;;;;;;6176626;23;20167;-87
2024/03/13 00:46:40;;;;;;;22.05;7.70;;;;;;;;;;6178623;23;20168;-87
2024/03/13 00:49:45;;;;;;;17.38;7.38;;;;;;;;;;6178987;23;20560;-89
2024/03/13 00:52:56;;;;;;;15.93;6.80;;;;;;;;;;6198863;23;20635;-89
2024/03/13 00:56:01;;;;;;;19.40;8.00;;;;;;;;;;6196654;23;20251;-86
2024/03/13 00:59:06;;;;;;;19.92;8.23;;;;;;;;;;6195181;23;20168;-86
2024/03/13 01:02:12;;;;;;;18.23;7.30;;;;;;;;;;6176212;23;20256;-89
2024/03/13 01:05:18;;;;;;;17.77;7.45;;;;;;;;;;6176647;23;20152;-89
2024/03/13 01:08:25;;;;;;;17.50;7.20;;;;;;;;;;6176412;23;20156;-88
2024/03/13 01:11:30;;;;;;;17.17;7.28;;;;;;;;;;6177307;23;20167;-88
2024/03/13 01:14:38;;;;;;;17.05;6.90;;;;;;;;;;6175811;23;20163;-87
2024/03/13 01:17:43;;;;;;;19.25;7.68;;;;;;;;;;6177090;23;20211;-87
2024/03/13 01:20:48;;;;;;;19.63;7.80;;;;;;;;;;6175386;23;20192;-90
2024/03/13 01:23:56;;;;;;;17.38;7.05;;;;;;;;;;6177264;23;20218;-89
2024/03/13 01:27:01;;;;;;;19.42;7.68;;;;;;;;;;6175781;23;20174;-89
2024/03/13 01:30:07;;;;;;;18.17;7.45;;;;;;;;;;6176353;23;20207;-88
2024/03/13 01:33:13;;;;;;;15.38;7.07;;;;;;;;;;6176395;23;20171;-88
2024/03/13 01:37:55;;;;;;;18.63;7.40;;;;;;;;;;6177205;23;20180;-87
2024/03/13 01:39:44;;;;;;;16.88;7.00;;;;;;;;;;6179676;23;20639;-88
2024/03/13 01:56:24;;;;;;;16.75;7.43;;;;;;;;;;6151376;23;20203;-87
2024/03/13 01:59:35;;;;;;;18.08;7.57;;;;;;;;;;6178398;23;20171;-91
2024/03/13 02:02:40;;;;;;;19.73;8.02;;;;;;;;;;6178510;23;20176;-89
2024/03/13 02:05:46;;;;;;;18.00;7.90;;;;;;;;;;6178118;23;20230;-89
2024/03/13 02:08:51;;;;;;;20.55;8.20;;;;;;;;;;6176182;23;20255;-87
2024/03/13 02:11:58;;;;;;;18.77;7.40;;;;;;;;;;6176772;23;20172;-88
2024/03/13 02:15:04;;;;;;;20.63;8.45;;;;;;;;;;6180217;23;20218;-89
2024/03/13 02:18:20;;;;;;;21.27;7.43;;;;;;;;;;6180067;23;20240;-91
2024/03/13 02:21:25;;;;;;;18.98;7.55;;;;;;;;;;6178420;23;20192;-89
2024/03/13 02:24:30;;;;;;;19.17;7.97;;;;;;;;;;6176960;23;20553;-89
2024/03/13 02:27:36;;;;;;;17.63;7.82;;;;;;;;;;6194986;23;20155;-87
2024/03/13 02:30:42;;;;;;;17.33;8.10;;;;;;;;;;6179387;23;20674;-90
2024/03/13 02:33:47;;;;;;;18.67;8.25;;;;;;;;;;6179277;23;20172;-90
2024/03/13 02:36:54;;;;;;;18.30;7.47;;;;;;;;;;6178916;23;20672;-88
2024/03/13 02:40:00;;;;;;;22.48;8.75;;;;;;;;;;6177596;23;20168;-86
2024/03/13 02:43:04;;;;;;;18.02;7.68;;;;;;;;;;6177543;23;20176;-86
2024/03/13 02:46:12;;;;;;;19.52;7.57;;;;;;;;;;6178301;23;20235;-88
2024/03/13 02:49:17;;;;;;;18.27;8.15;;;;;;;;;;6177307;23;20307;-89
2024/03/13 02:52:24;;;;;;;17.92;7.32;;;;;;;;;;6178637;23;20171;-88
2024/03/13 02:55:29;;;;;;;19.98;8.10;;;;;;;;;;6178309;23;20159;-88
2024/03/13 02:58:35;;;;;;;16.27;7.57;;;;;;;;;;6184438;23;20168;-86
2024/03/13 03:01:43;;;;;;;21.95;8.52;;;;;;;;;;6197486;23;20204;-89
2024/03/13 03:04:48;;;;;;;21.58;8.18;;;;;;;;;;6178615;23;20239;-87
2024/03/13 03:07:53;;;;;;;17.52;7.57;;;;;;;;;;6178323;23;20164;-90
2024/03/13 03:10:58;;;;;;;20.50;7.78;;;;;;;;;;6179021;23;20192;-87
2024/03/13 03:14:05;;;;;;;20.17;7.93;;;;;;;;;;6179008;23;20168;-89
2024/03/13 03:17:10;;;;;;;18.90;7.72;;;;;;;;;;6178547;23;20267;-87
2024/03/13 03:20:15;;;;;;;20.98;8.63;;;;;;;;;;6178162;23;20172;-89
2024/03/13 03:23:21;;;;;;;20.02;8.20;;;;;;;;;;6177013;23;20199;-88
2024/03/13 03:26:28;;;;;;;22.20;8.43;;;;;;;;;;6177253;23;20187;-88
2024/03/13 03:29:33;;;;;;;21.30;8.32;;;;;;;;;;6178333;23;20191;-87
2024/03/13 03:32:39;;;;;;;20.75;7.97;;;;;;;;;;6179697;23;20271;-87
2024/03/13 03:35:45;;;;;;;24.58;9.10;;;;;;;;;;6178859;23;20163;-89
2024/03/13 03:38:50;;;;;;;21.27;8.90;;;;;;;;;;6178634;23;20176;-88
2024/03/13 03:41:56;;;;;;;20.70;8.68;;;;;;;;;;6179253;23;20203;-89
2024/03/13 03:45:02;;;;;;;24.13;9.50;;;;;;;;;;6173670;23;20287;-87
2024/03/13 03:48:08;;;;;;;21.48;8.48;;;;;;;;;;6171723;23;20191;-88
2024/03/13 03:51:16;;;;;;;21.23;8.38;;;;;;;;;;6172897;23;20242;-90
2024/03/13 03:54:22;;;;;;;18.42;8.13;;;;;;;;;;6173692;23;20180;-88
2024/03/13 03:57:27;;;;;;;24.05;9.50;;;;;;;;;;6173016;23;20171;-87
2024/03/13 04:00:35;;;;;;;19.10;8.50;;;;;;;;;;6173115;23;20199;-88
2024/03/13 04:03:41;;;;;;;18.63;8.50;;;;;;;;;;6172128;23;20167;-87
2024/03/13 04:06:46;;;;;;;20.42;8.43;;;;;;;;;;6173784;23;20191;-87
2024/03/13 04:09:52;;;;;;;20.33;8.32;;;;;;;;;;6174294;23;20218;-89
2024/03/13 04:12:57;;;;;;;29.05;10.45;;;;;;;;;;6172758;23;20172;-88
2024/03/13 04:16:04;;;;;;;23.00;9.65;;;;;;;;;;6174376;23;20530;-88
2024/03/13 04:19:10;;;;;;;24.75;10.00;;;;;;;;;;6189434;23;20171;-88
2024/03/13 04:22:16;;;;;;;23.02;9.57;;;;;;;;;;6173875;23;20190;-86
2024/03/13 04:25:22;;;;;;;33.97;10.45;;;;;;;;;;6174246;23;20624;-88
2024/03/13 04:28:27;;;;;;;24.13;9.50;;;;;;;;;;6172499;23;20195;-87
2024/03/13 04:31:33;;;;;;;32.78;10.73;;;;;;;;;;6174196;23;20171;-88
2024/03/13 04:34:38;;;;;;;30.13;10.82;;;;;;;;;;6173311;23;20727;-88
2024/03/13 04:37:44;;;;;;;25.58;9.48;;;;;;;;;;6173382;23;20171;-91
2024/03/13 04:40:48;;;;;;;25.23;10.20;;;;;;;;;;6173824;23;20176;-89
2024/03/13 04:43:53;;;;;;;28.67;10.35;;;;;;;;;;6174431;23;20172;-88
2024/03/13 04:46:59;;;;;;;22.70;9.07;;;;;;;;;;6191121;23;20211;-89
2024/03/13 04:50:04;;;;;;;24.00;9.32;;;;;;;;;;6191085;23;20607;-89
2024/03/13 04:53:09;;;;;;;25.95;11.30;;;;;;;;;;6174522;23;20164;-90
2024/03/13 04:56:14;;;;;;;23.85;9.55;;;;;;;;;;6173831;23;20171;-89
2024/03/13 04:59:20;;;;;;;24.52;9.80;;;;;;;;;;6174179;23;20175;-87
2024/03/13 05:02:26;;;;;;;25.98;9.85;;;;;;;;;;6172647;23;20270;-89
2024/03/13 05:05:31;;;;;;;23.33;9.52;;;;;;;;;;6157371;23;20187;-89
2024/03/13 05:08:37;;;;;;;24.92;9.60;;;;;;;;;;6171253;23;20187;-89
2024/03/13 05:11:41;;;;;;;25.83;10.27;;;;;;;;;;6173217;23;20274;-87
2024/03/13 05:14:46;;;;;;;28.38;9.80;;;;;;;;;;6173404;23;20187;-87
2024/03/13 05:17:52;;;;;;;26.10;9.57;;;;;;;;;;6172192;23;20627;-87
2024/03/13 05:20:58;;;;;;;28.48;9.82;;;;;;;;;;6173497;23;20508;-88
2024/03/13 05:24:05;;;;;;;25.10;10.52;;;;;;;;;;6174463;23;20176;-88
2024/03/13 05:27:11;;;;;;;23.58;10.32;;;;;;;;;;6174100;23;20167;-88
2024/03/13 05:30:16;;;;;;;25.90;10.07;;;;;;;;;;6175231;23;20183;-88
2024/03/13 05:33:21;;;;;;;29.02;9.77;;;;;;;;;;6175485;23;20292;-89
2024/03/13 05:36:26;;;;;;;23.48;9.13;;;;;;;;;;6172516;23;20220;-89
2024/03/13 05:39:31;;;;;;;24.88;10.07;;;;;;;;;;6174715;23;20192;-88
2024/03/13 05:42:37;;;;;;;31.23;10.90;;;;;;;;;;6191400;23;20194;-85
2024/03/13 05:45:45;;;;;;;26.33;10.90;;;;;;;;;;6173176;23;20188;-87
2024/03/13 05:48:50;;;;;;;26.00;10.02;;;;;;;;;;6191625;23;20234;-88
2024/03/13 05:51:56;;;;;;;27.85;10.50;;;;;;;;;;6174812;23;20171;-87
2024/03/13 05:55:02;;;;;;;26.85;10.32;;;;;;;;;;6173480;23;20176;-87
2024/03/13 05:58:08;;;;;;;30.63;10.48;;;;;;;;;;6172367;23;20547;-87
2024/03/13 06:01:14;;;;;;;32.90;11.00;;;;;;;;;;6174542;23;20233;-87
2024/03/13 06:04:20;;;;;;;25.45;9.98;;;;;;;;;;6173706;23;20168;-89
2024/03/13 06:07:25;;;;;;;24.85;9.90;;;;;;;;;;6173500;23;20168;-91
2024/03/13 06:10:30;;;;;;;25.05;9.85;;;;;;;;;;6173942;23;20168;-87
2024/03/13 06:13:36;;;;;;;25.40;10.18;;;;;;;;;;6190085;23;20251;-88
2024/03/13 06:16:41;;;;;;;27.35;9.82;;;;;;;;;;6174590;23;20282;-87
2024/03/13 06:19:46;;;;;;;30.90;10.57;;;;;;;;;;6175610;23;20811;-89
2024/03/13 06:22:53;;;;;;;26.83;10.48;;;;;;;;;;6174651;23;20310;-86
2024/03/13 06:25:58;;;;;;;26.25;10.85;;;;;;;;;;6175801;23;20619;-88
2024/03/13 06:32:28;;;;;;;28.27;11.32;;;;;;;;;;6175140;23;20164;-89
2024/03/13 06:35:33;;;;;;;32.33;12.15;;;;;;;;;;6181977;23;20304;-89
2024/03/13 06:38:41;;;;;;;22.35;9.25;;;;;;;;;;6177385;23;20171;-89
2024/03/13 06:41:47;;;;;;;26.00;9.32;;;;;;;;;;6175865;23;20243;-89
2024/03/13 06:44:53;;;;;;;24.85;9.48;;;;;;;;;;6177406;23;20171;-90
2024/03/13 06:47:58;;;;;;;21.73;9.52;;;;;;;;;;6177860;23;20172;-89
2024/03/13 06:51:08;;;;;;;28.40;10.70;;;;;;;;;;6178194;23;20167;-89
2024/03/13 06:54:13;;;;;;;24.52;10.10;;;;;;;;;;6177865;23;20248;-90
2024/03/13 06:57:18;;;;;;;27.10;9.73;;;;;;;;;;6178225;23;20223;-90
2024/03/13 07:00:27;;;;;;;22.83;9.18;;;;;;;;;;6176233;23;20212;-88
2024/03/13 07:03:34;;;;;;;20.98;8.45;;;;;;;;;;6178131;23;20195;-90
2024/03/13 07:06:41;;;;;;;24.60;9.57;;;;;;;;;;6176891;23;20199;-87
2024/03/13 07:09:49;;;;;;;22.15;8.68;;;;;;;;;;6177439;23;20255;-89
2024/03/13 07:12:54;;;;;;;25.30;9.52;;;;;;;;;;6175994;23;20172;-90
2024/03/13 07:16:00;;;;;;;24.10;8.77;;;;;;;;;;6178379;23;20485;-91
2024/03/13 07:19:07;;;;;;;22.83;9.35;;;;;;;;;;6179044;23;20176;-91
2024/03/13 07:22:14;;;;;;;25.30;10.20;;;;;;;;;;6176351;23;20192;-89
2024/03/13 07:25:20;;;;;;;30.75;10.02;;;;;;;;;;6177340;23;20172;-89
2024/03/13 07:28:25;;;;;;;31.65;10.02;;;;;;;;;;6176136;23;20274;-92
2024/03/13 07:31:30;;;;;;;22.20;9.40;;;;;;;;;;6179546;23;20252;-89
2024/03/13 07:34:36;;;;;;;21.83;9.77;;;;;;;;;;6178765;23;20171;-90
2024/03/13 07:37:41;;;;;;;23.27;9.43;;;;;;;;;;6178535;23;20171;-88
2024/03/13 07:40:46;;;;;;;28.58;12.07;;;;;;;;;;6177907;23;20163;-88
2024/03/13 07:43:51;;;;;;;26.15;10.93;;;;;;;;;;6176978;23;20191;-88
2024/03/13 07:46:56;;;;;;;29.13;10.95;;;;;;;;;;6176550;23;20623;-88
2024/03/13 07:50:04;;;;;;;26.20;10.43;;;;;;;;;;6177579;23;20171;-89
2024/03/13 07:53:09;;;;;;;27.00;10.30;;;;;;;;;;6175710;23;20445;-91
2024/03/13 07:56:14;;;;;;;25.75;10.63;;;;;;;;;;6177583;23;20222;-89
2024/03/13 07:59:21;;;;;;;31.17;11.30;;;;;;;;;;6177073;23;20223;-89
2024/03/13 08:02:29;;;;;;;30.00;11.35;;;;;;;;;;6179036;23;20655;-89
2024/03/13 08:05:34;;;;;;;26.05;10.90;;;;;;;;;;6194104;23;20227;-88
2024/03/13 08:08:39;;;;;;;28.35;10.50;;;;;;;;;;6177592;23;20195;-90
2024/03/13 08:11:44;;;;;;;28.52;10.40;;;;;;;;;;6175666;23;20235;-89
2024/03/13 08:14:50;;;;;;;27.17;10.88;;;;;;;;;;6176874;23;20220;-89
2024/03/13 08:17:56;;;;;;;29.55;11.05;;;;;;;;;;6175400;23;20283;-88
2024/03/13 08:21:01;;;;;;;30.15;11.45;;;;;;;;;;6174051;23;20164;-88
2024/03/13 08:24:07;;;;;;;31.00;10.68;;;;;;;;;;6176397;23;20182;-88
2024/03/13 08:27:16;;;;;;;23.10;10.57;;;;;;;;;;6175852;23;20168;-90
2024/03/13 08:30:22;;;;;;;25.58;10.63;;;;;;;;;;6175827;23;20219;-89
2024/03/13 08:33:28;;;;;;;27.25;10.60;;;;;;;;;;6177922;23;20172;-87
2024/03/13 08:36:33;;;;;;;27.00;10.48;;;;;;;;;;6175420;23;20609;-89
2024/03/13 08:39:38;;;;;;;29.75;10.95;;;;;;;;;;6175398;23;20160;-90
2024/03/13 08:42:45;;;;;;;29.23;12.05;;;;;;;;;;6176631;23;20269;-88
2024/03/13 08:45:50;;;;;;;29.30;11.10;;;;;;;;;;6175905;23;20167;-88
2024/03/13 08:48:58;;;;;;;28.08;10.52;;;;;;;;;;6193163;23;20191;-90
2024/03/13 08:52:04;;;;;;;28.98;11.20;;;;;;;;;;6175547;23;20192;-89
2024/03/13 08:55:09;;;;;;;26.73;11.55;;;;;;;;;;6174915;23;20168;-90
2024/03/13 08:58:16;;;;;;;29.05;11.48;;;;;;;;;;6175564;23;20302;-90
2024/03/13 09:01:21;;;;;;;34.10;14.18;;;;;;;;;;6175873;23;20207;-89
2024/03/13 09:04:34;;;;;;;26.85;10.38;;;;;;;;;;6177690;23;20205;-88
2024/03/13 09:07:40;;;;;;;25.92;10.07;;;;;;;;;;6174577;23;20167;-89
2024/03/13 09:10:45;;;;;;;25.02;10.20;;;;;;;;;;6174893;23;20168;-89
2024/03/13 09:13:50;;;;;;;23.35;9.55;;;;;;;;;;6191318;23;20199;-89
2024/03/13 09:16:56;;;;;;;30.38;10.10;;;;;;;;;;6178533;23;20172;-91
2024/03/13 09:20:01;;;;;;;21.27;9.45;;;;;;;;;;6176299;23;20248;-88
2024/03/13 09:23:08;;;;;;;20.10;9.20;;;;;;;;;;6175814;23;20211;-90
2024/03/13 09:26:13;;;;;;;21.13;9.43;;;;;;;;;;6172451;23;20179;-90
2024/03/13 09:29:18;;;;;;;21.45;8.60;;;;;;;;;;6173520;23;20203;-90
2024/03/13 09:32:24;;;;;;;20.67;9.40;;;;;;;;;;6174741;23;20611;-89
2024/03/13 09:35:29;;;;;;;25.83;9.38;;;;;;;;;;6177620;23;20172;-88
2024/03/13 09:38:34;;;;;;;20.52;8.23;;;;;;;;;;6177776;23;20695;-88
2024/03/13 09:41:40;;;;;;;21.67;8.95;;;;;;;;;;6176131;23;20176;-89
2024/03/13 09:44:46;;;;;;;20.40;8.73;;;;;;;;;;6177877;23;20168;-90
2024/03/13 09:47:51;;;;;;;21.67;9.35;;;;;;;;;;6176458;23;20168;-88
2024/03/13 09:51:00;;;;;;;17.70;8.75;;;;;;;;;;6160355;23;20176;-89
2024/03/13 09:54:05;;;;;;;17.27;8.40;;;;;;;;;;6176272;23;20177;-89
2024/03/13 09:57:11;;;;;;;16.00;7.55;;;;;;;;;;6177671;23;20242;-89
2024/03/13 10:00:18;;;;;;;16.05;7.93;;;;;;;;;;6180648;23;20156;-90
2024/03/13 10:03:23;;;;;;;19.88;7.90;;;;;;;;;;6163759;23;20195;-89
2024/03/13 10:06:29;;;;;;;15.77;7.85;;;;;;;;;;6177894;23;20211;-88
2024/03/13 10:09:36;;;;;;;16.42;7.65;;;;;;;;;;6178454;23;20171;-90
2024/03/13 10:12:42;;;;;;;15.15;7.68;;;;;;;;;;6176654;23;20187;-90
2024/03/13 10:15:48;;;;;;;14.02;6.65;;;;;;;;;;6177521;23;20171;-89
2024/03/13 10:18:54;;;;;;;12.77;6.53;;;;;;;;;;6175435;23;20199;-90
2024/03/13 10:21:59;;;;;;;10.98;5.70;;;;;;;;;;6178466;23;20312;-87
2024/03/13 10:25:06;;;;;;;11.68;5.53;;;;;;;;;;6179796;23;20243;-90
2024/03/13 10:28:17;;;;;;;9.63;4.40;;;;;;;;;;6159877;23;20188;-88
2024/03/13 10:31:24;;;;;;;11.30;5.50;;;;;;;;;;6178614;23;20212;-88
2024/03/13 10:34:34;;;;;;;9.90;4.70;;;;;;;;;;6181184;23;20168;-87
2024/03/13 10:37:41;;;;;;;10.80;4.72;;;;;;;;;;6182412;23;20171;-90
2024/03/13 10:40:46;;;;;;;10.90;4.85;;;;;;;;;;6179211;23;20608;-88
2024/03/13 10:43:53;;;;;;;10.13;5.00;;;;;;;;;;6179896;23;20196;-90
2024/03/13 10:46:59;;;;;;;11.52;4.75;;;;;;;;;;6180490;23;20182;-88
2024/03/13 10:50:04;;;;;;;11.65;5.20;;;;;;;;;;6180940;23;20168;-89
2024/03/13 10:53:10;;;;;;;12.57;5.25;;;;;;;;;;6164324;23;20212;-88
2024/03/13 10:56:15;;;;;;;8.30;4.20;;;;;;;;;;6180787;23;20240;-90
2024/03/13 10:59:23;;;;;;;16.67;6.13;;;;;;;;;;6163681;23;20168;-88
2024/03/13 11:02:28;;;;;;;8.07;4.25;;;;;;;;;;6180824;23;20228;-88
2024/03/13 11:05:34;;;;;;;9.93;3.95;;;;;;;;;;6159869;23;20175;-89
2024/03/13 11:08:40;;;;;;;7.68;4.13;;;;;;;;;;6180508;23;20171;-90
2024/03/13 11:11:45;;;;;;;7.00;3.35;;;;;;;;;;6177087;23;20506;-91
2024/03/13 11:14:51;;;;;;;8.65;3.47;;;;;;;;;;6177796;23;20488;-90
2024/03/13 11:17:56;;;;;;;9.38;3.47;;;;;;;;;;6176892;23;20491;-89
2024/03/13 11:21:01;;;;;;;8.10;3.85;;;;;;;;;;6177016;23;20634;-90
2024/03/13 11:24:07;;;;;;;9.18;3.78;;;;;;;;;;6159678;23;20242;-91
2024/03/13 11:27:12;;;;;;;9.85;3.40;;;;;;;;;;6177255;23;20172;-89
2024/03/13 11:30:18;;;;;;;6.95;3.17;;;;;;;;;;6177495;23;20179;-90
2024/03/13 11:33:24;;;;;;;8.02;3.40;;;;;;;;;;6177903;23;20168;-88
2024/03/13 11:36:30;;;;;;;8.23;3.70;;;;;;;;;;6179194;23;20163;-89
2024/03/13 11:39:35;;;;;;;8.10;3.72;;;;;;;;;;6177982;23;20176;-89
2024/03/13 11:42:44;;;;;;;7.75;3.33;;;;;;;;;;6176385;23;20172;-90
2024/03/13 11:45:49;;;;;;;6.63;3.38;;;;;;;;;;6177629;23;20273;-91
2024/03/13 11:48:55;;;;;;;8.23;3.92;;;;;;;;;;6177232;23;20299;-88
2024/03/13 11:52:10;;;;;;;6.30;3.08;;;;;;;;;;6177743;23;20174;-93
2024/03/13 11:55:26;;;;;;;6.95;3.08;;;;;;;;;;6178170;23;20167;-89
2024/03/13 11:58:32;;;;;;;7.35;3.10;;;;;;;;;;6176340;23;20175;-86
2024/03/13 12:01:38;;;;;;;8.70;4.05;;;;;;;;;;6179935;23;20172;-87
2024/03/13 12:04:47;;;;;;;7.90;3.35;;;;;;;;;;6175500;23;20488;-88
2024/03/13 12:07:53;;;;;;;7.97;3.70;;;;;;;;;;6178913;23;20172;-89
2024/03/13 12:10:58;;;;;;;6.75;3.70;;;;;;;;;;6178371;23;20172;-88
2024/03/13 12:14:03;;;;;;;9.48;3.75;;;;;;;;;;6177133;23;20655;-87
2024/03/13 12:17:09;;;;;;;6.03;3.50;;;;;;;;;;6181572;23;20188;-87
2024/03/13 12:20:17;;;;;;;5.90;3.38;;;;;;;;;;6175338;23;20176;-89
2024/03/13 12:23:23;;;;;;;9.88;4.00;;;;;;;;;;6176599;23;20261;-88
2024/03/13 12:26:29;;;;;;;7.05;3.75;;;;;;;;;;6176019;23;20171;-89
2024/03/13 12:29:38;;;;;;;8.43;3.80;;;;;;;;;;6176526;23;20194;-90
2024/03/13 12:32:43;;;;;;;7.40;3.40;;;;;;;;;;6179788;23;20168;-89
2024/03/13 12:35:58;;;;;;;7.68;3.85;;;;;;;;;;6179505;23;20233;-89
2024/03/13 12:39:05;;;;;;;12.32;3.78;;;;;;;;;;6177110;23;20175;-89
2024/03/13 12:42:12;;;;;;;5.82;3.10;;;;;;;;;;6175788;23;20189;-87
2024/03/13 12:45:18;;;;;;;5.68;3.25;;;;;;;;;;6178813;23;20838;-91
2024/03/13 12:48:24;;;;;;;7.60;3.63;;;;;;;;;;6174373;23;20572;-91
2024/03/13 12:51:29;;;;;;;9.13;3.35;;;;;;;;;;6174892;23;20176;-91
2024/03/13 12:54:36;;;;;;;7.82;3.65;;;;;;;;;;6176159;23;20251;-89
2024/03/13 12:57:41;;;;;;;10.20;3.47;;;;;;;;;;6174958;23;20290;-89
2024/03/13 13:00:46;;;;;;;6.78;3.60;;;;;;;;;;6180423;23;20170;-90
2024/03/13 13:03:51;;;;;;;5.45;3.05;;;;;;;;;;6179395;23;20192;-88
2024/03/13 13:06:57;;;;;;;13.27;5.07;;;;;;;;;;6175985;23;20194;-89
2024/03/13 13:10:03;;;;;;;6.57;2.78;;;;;;;;;;6166628;23;20180;-90
2024/03/13 13:13:09;;;;;;;5.95;3.17;;;;;;;;;;6177890;23;20196;-90
2024/03/13 13:16:14;;;;;;;5.15;2.97;;;;;;;;;;6176667;23;20227;-88
2024/03/13 13:19:19;;;;;;;7.43;3.28;;;;;;;;;;6177137;23;20292;-90
2024/03/13 13:22:24;;;;;;;5.50;3.10;;;;;;;;;;6177414;23;20175;-89
2024/03/13 13:25:30;;;;;;;8.43;3.85;;;;;;;;;;6177748;23;20168;-88
2024/03/13 13:28:36;;;;;;;7.90;3.58;;;;;;;;;;6176877;23;20186;-91
2024/03/13 13:31:42;;;;;;;9.48;3.80;;;;;;;;;;6177923;23;20215;-90
2024/03/13 13:34:51;;;;;;;5.53;2.83;;;;;;;;;;6182368;23;20195;-89
2024/03/13 13:38:06;;;;;;;5.43;2.85;;;;;;;;;;6182044;23;20232;-89
2024/03/13 13:41:11;;;;;;;6.07;2.85;;;;;;;;;;6181017;23;20156;-89
2024/03/13 13:44:16;;;;;;;5.97;2.80;;;;;;;;;;6177623;23;20199;-88
2024/03/13 13:47:22;;;;;;;4.88;2.63;;;;;;;;;;6176665;23;20167;-88
2024/03/13 13:50:27;;;;;;;6.15;2.90;;;;;;;;;;6178782;23;20155;-91
2024/03/13 13:53:34;;;;;;;12.10;4.03;;;;;;;;;;6179382;23;20168;-89
2024/03/13 13:56:39;;;;;;;5.45;3.13;;;;;;;;;;6179201;23;20164;-90
2024/03/13 13:59:44;;;;;;;6.78;2.45;;;;;;;;;;6180227;23;20236;-88
2024/03/13 14:02:50;;;;;;;6.13;3.10;;;;;;;;;;6179898;23;20187;-89
2024/03/13 14:06:06;;;;;;;5.72;3.22;;;;;;;;;;6180771;23;20180;-90
2024/03/13 14:09:13;;;;;;;5.53;3.15;;;;;;;;;;6184187;23;20172;-89
2024/03/13 14:12:23;;;;;;;4.90;2.67;;;;;;;;;;6179933;23;20630;-91
2024/03/13 14:15:29;;;;;;;4.93;2.67;;;;;;;;;;6183344;23;20172;-90
2024/03/13 14:18:35;;;;;;;5.65;2.97;;;;;;;;;;6163475;23;20164;-90
2024/03/13 14:21:40;;;;;;;6.72;2.55;;;;;;;;;;6180468;23;20151;-90
2024/03/13 14:24:45;;;;;;;6.15;2.95;;;;;;;;;;6178635;23;20199;-88
2024/03/13 14:27:51;;;;;;;6.10;2.55;;;;;;;;;;6176199;23;20175;-90
2024/03/13 14:30:57;;;;;;;5.35;2.55;;;;;;;;;;6175489;23;20191;-88
2024/03/13 14:34:02;;;;;;;5.25;2.50;;;;;;;;;;6179759;23;20962;-89
2024/03/13 14:37:09;;;;;;;6.78;2.30;;;;;;;;;;6193139;23;20187;-87
2024/03/13 14:40:16;;;;;;;6.28;2.47;;;;;;;;;;6176158;23;20183;-89
2024/03/13 14:43:21;;;;;;;5.53;2.83;;;;;;;;;;6175974;23;20172;-88
2024/03/13 14:46:26;;;;;;;3.97;2.55;;;;;;;;;;6176599;23;20216;-89
2024/03/13 14:49:31;;;;;;;5.07;2.30;;;;;;;;;;6177460;23;20171;-89
2024/03/13 14:52:37;;;;;;;4.38;2.80;;;;;;;;;;6176723;23;20175;-90
2024/03/13 14:55:43;;;;;;;6.05;2.95;;;;;;;;;;6177775;23;20151;-88
2024/03/13 14:58:48;;;;;;;4.28;2.65;;;;;;;;;;6176220;23;20608;-89
2024/03/13 15:01:55;;;;;;;5.80;2.67;;;;;;;;;;6179656;23;20212;-88
2024/03/13 15:05:05;;;;;;;7.43;2.60;;;;;;;;;;6176597;23;20263;-88
2024/03/13 15:08:10;;;;;;;8.43;2.25;;;;;;;;;;6176252;23;20176;-88
2024/03/13 15:11:15;;;;;;;6.03;2.78;;;;;;;;;;6176502;23;20176;-89
2024/03/13 15:14:21;;;;;;;3.80;2.25;;;;;;;;;;6177238;23;20171;-90
2024/03/13 15:17:31;;;;;;;7.97;3.45;;;;;;;;;;6177844;23;20175;-89
2024/03/13 15:20:36;;;;;;;5.30;2.13;;;;;;;;;;6196261;23;20299;-88
2024/03/13 15:23:41;;;;;;;5.63;2.30;;;;;;;;;;6178247;23;20168;-90
2024/03/13 15:26:46;;;;;;;5.10;3.08;;;;;;;;;;6175943;23;20172;-89
2024/03/13 15:29:52;;;;;;;4.18;2.47;;;;;;;;;;6175907;23;20262;-88
2024/03/13 15:33:00;;;;;;;4.82;2.92;;;;;;;;;;6180347;23;20172;-90
2024/03/13 15:36:05;;;;;;;5.95;2.30;;;;;;;;;;6178602;23;20175;-89
2024/03/13 15:39:13;;;;;;;5.38;2.92;;;;;;;;;;6179723;23;20300;-88
2024/03/13 15:42:18;;;;;;;5.30;2.20;;;;;;;;;;6177218;23;20167;-88
2024/03/13 15:45:24;;;;;;;6.07;2.60;;;;;;;;;;6176947;23;20207;-90
2024/03/13 15:48:29;;;;;;;5.13;2.60;;;;;;;;;;6179112;23;20175;-91
2024/03/13 15:51:35;;;;;;;6.85;2.20;;;;;;;;;;6177271;23;20295;-88
2024/03/13 15:54:40;;;;;;;3.20;1.83;;;;;;;;;;6178180;23;20183;-90
2024/03/13 15:57:45;;;;;;;4.40;1.98;;;;;;;;;;6178488;23;20284;-87
2024/03/13 16:00:52;;;;;;;5.55;2.30;;;;;;;;;;6178200;23;20287;-87
2024/03/13 16:03:58;;;;;;;3.92;1.70;;;;;;;;;;6161349;23;20214;-89
2024/03/13 16:07:03;;;;;;;4.20;1.88;;;;;;;;;;6177215;23;20247;-88
2024/03/13 16:10:09;;;;;;;5.25;1.80;;;;;;;;;;6178530;23;20239;-89
2024/03/13 16:13:14;;;;;;;6.22;2.08;;;;;;;;;;6177675;23;20191;-88
2024/03/13 16:16:21;;;;;;;2.92;1.95;;;;;;;;;;6174814;23;20620;-89
2024/03/13 16:19:26;;;;;;;3.17;1.80;;;;;;;;;;6175097;23;20175;-88
2024/03/13 16:22:31;;;;;;;4.80;2.53;;;;;;;;;;6175547;23;20229;-89
2024/03/13 16:25:37;;;;;;;4.80;2.03;;;;;;;;;;6177605;23;20191;-88
2024/03/13 16:28:44;;;;;;;4.72;1.88;;;;;;;;;;6178575;23;20191;-87
2024/03/13 16:31:50;;;;;;;13.75;3.30;;;;;;;;;;6179587;23;20211;-89
2024/03/13 16:34:56;;;;;;;13.98;3.50;;;;;;;;;;6176450;23;20168;-89
2024/03/13 16:38:03;;;;;;;6.25;2.63;;;;;;;;;;6176682;23;20159;-89
2024/03/13 16:41:10;;;;;;;8.98;4.45;;;;;;;;;;6173598;23;20188;-87
2024/03/13 16:44:15;;;;;;;6.93;3.40;;;;;;;;;;6173536;23;20190;-89
2024/03/13 16:47:20;;;;;;;6.13;2.30;;;;;;;;;;6174563;23;20173;-89
2024/03/13 16:50:25;;;;;;;2.33;1.95;;;;;;;;;;6174156;23;20252;-87
2024/03/13 16:53:31;;;;;;;5.53;1.92;;;;;;;;;;6174395;23;20172;-88
2024/03/13 16:56:36;;;;;;;7.70;2.33;;;;;;;;;;6178919;23;20171;-90
2024/03/13 16:59:42;;;;;;;6.97;2.67;;;;;;;;;;6177875;23;20221;-86
2024/03/13 17:02:48;;;;;;;10.02;2.80;;;;;;;;;;6174583;23;20175;-88
2024/03/13 17:05:53;;;;;;;6.25;2.13;;;;;;;;;;6158814;23;20235;-89
2024/03/13 17:08:58;;;;;;;4.43;2.17;;;;;;;;;;6174151;23;20171;-90
2024/03/13 17:12:03;;;;;;;2.95;2.15;;;;;;;;;;6174978;23;20171;-89
2024/03/13 17:15:09;;;;;;;6.70;2.53;;;;;;;;;;6174119;23;20168;-88
2024/03/13 17:18:14;;;;;;;6.20;2.97;;;;;;;;;;6175513;23;20642;-89
2024/03/13 17:21:20;;;;;;;5.10;2.05;;;;;;;;;;6174596;23;20187;-90
2024/03/13 17:24:25;;;;;;;5.45;2.90;;;;;;;;;;6172338;23;20507;-90
2024/03/13 17:27:32;;;;;;;5.03;2.08;;;;;;;;;;6173902;23;20198;-89
2024/03/13 17:30:37;;;;;;;4.30;2.22;;;;;;;;;;6174605;23;20172;-90
2024/03/13 17:33:42;;;;;;;3.92;2.25;;;;;;;;;;6176802;23;20175;-88
2024/03/13 17:36:47;;;;;;;6.25;2.08;;;;;;;;;;6178698;23;20207;-89
2024/03/13 17:39:52;;;;;;;4.88;2.20;;;;;;;;;;6173746;23;20175;-88
2024/03/13 17:42:58;;;;;;;9.32;2.85;;;;;;;;;;6176792;23;20171;-88
2024/03/13 17:46:03;;;;;;;4.53;2.40;;;;;;;;;;6173928;23;20615;-87
2024/03/13 17:49:09;;;;;;;6.80;2.80;;;;;;;;;;6177102;23;20171;-89
2024/03/13 17:52:14;;;;;;;6.10;2.30;;;;;;;;;;6172743;23;20176;-89
2024/03/13 17:55:22;;;;;;;6.72;2.20;;;;;;;;;;6174076;23;20167;-89
2024/03/13 17:58:27;;;;;;;5.28;2.70;;;;;;;;;;6174378;23;20175;-89
2024/03/13 18:01:31;;;;;;;6.63;3.22;;;;;;;;;;6175037;23;20263;-90
2024/03/13 18:04:37;;;;;;;7.68;3.78;;;;;;;;;;6193902;23;20247;-90
2024/03/13 18:07:42;;;;;;;13.23;4.80;;;;;;;;;;6175342;23;20616;-89
2024/03/13 18:10:47;;;;;;;12.57;4.57;;;;;;;;;;6174549;23;20720;-91
2024/03/13 18:13:53;;;;;;;15.18;4.57;;;;;;;;;;6157811;23;20187;-90
2024/03/13 18:16:59;;;;;;;9.57;3.83;;;;;;;;;;6175053;23;20620;-88
2024/03/13 18:20:08;;;;;;;14.10;5.60;;;;;;;;;;6160038;23;20171;-88
2024/03/13 18:23:14;;;;;;;11.88;5.00;;;;;;;;;;6179489;23;20236;-89
2024/03/13 18:26:19;;;;;;;8.10;4.60;;;;;;;;;;6177465;23;20271;-87
2024/03/13 18:29:24;;;;;;;9.02;3.75;;;;;;;;;;6177574;23;20190;-88
2024/03/13 18:32:29;;;;;;;6.60;3.33;;;;;;;;;;6162589;23;20168;-89
2024/03/13 18:35:39;;;;;;;22.95;10.57;;;;;;;;;;6181906;23;20183;-92
2024/03/13 18:38:46;;;;;;;10.05;4.10;;;;;;;;;;6176867;23;20648;-89